createdAt,value
2023-01-19T00:00:20.105Z,99628.16
2023-01-19T00:02:48.357Z,99626.38
2023-01-19T00:05:16.355Z,99608.94
2023-01-19T00:07:46.745Z,99585.56
2023-01-19T00:10:14.679Z,99588.19
2023-01-19T00:12:43.965Z,99598.63
2023-01-19T00:15:13.173Z,99583.88
2023-01-19T00:17:42.345Z,99589.13
2023-01-19T00:20:11.564Z,99593.47
2023-01-19T00:22:39.456Z,99569.19
2023-01-19T00:25:08.347Z,99584.88
2023-01-19T00:27:36.208Z,99570.09
2023-01-19T00:30:06.296Z,99600.53
2023-01-19T00:32:34.186Z,99600.59
2023-01-19T00:35:02.027Z,99592.75
2023-01-19T00:37:29.861Z,99590.16
2023-01-19T00:39:57.751Z,99575.38
2023-01-19T00:42:45.313Z,99565.88
2023-01-19T00:45:16.644Z,99614.50
2023-01-19T00:47:44.518Z,99603.16
2023-01-19T00:50:14.196Z,99575.38
2023-01-19T00:52:42.877Z,99586.63
2023-01-19T00:55:11.837Z,99608.28
2023-01-19T00:57:40.620Z,99596.09
2023-01-19T01:00:12.936Z,99583.09
2023-01-19T01:02:44.387Z,99565.66
2023-01-19T01:05:13.223Z,99567.41
2023-01-19T01:07:45.136Z,99608.28
2023-01-19T01:10:15.212Z,99584.78
2023-01-19T01:12:54.873Z,99588.19
2023-01-19T01:15:26.362Z,99585.63
2023-01-19T01:17:56.024Z,99589.94
2023-01-19T01:20:27.236Z,99641.03
2023-01-19T01:22:55.913Z,99594.91
2023-01-19T01:25:25.992Z,99594.94
2023-01-19T01:27:54.456Z,99588.78
2023-01-19T01:30:22.561Z,99598.28
2023-01-19T01:32:51.226Z,99575.63
2023-01-19T01:35:23.251Z,99559.16
2023-01-19T01:37:51.191Z,99565.31
2023-01-19T01:40:20.284Z,99530.50
2023-01-19T01:42:48.249Z,99553.16
2023-01-19T01:45:31.909Z,99549.69
2023-01-19T01:48:04.211Z,99519.28
2023-01-19T01:50:36.557Z,99529.78
2023-01-19T01:53:08.733Z,99521.09
2023-01-19T01:55:41.264Z,99499.44
2023-01-19T01:58:11.200Z,99496.91
2023-01-19T02:00:54.302Z,99499.63
2023-01-19T02:03:24.777Z,99493.59
2023-01-19T02:05:59.326Z,99517.16
2023-01-19T02:08:50.292Z,99544.97
2023-01-19T02:11:35.791Z,99554.56
2023-01-19T02:14:06.194Z,99546.81
2023-01-19T02:16:34.933Z,99561.63
2023-01-19T02:19:03.200Z,99559.06
2023-01-19T02:21:39.949Z,99572.09
2023-01-19T02:24:09.661Z,99547.84
2023-01-19T02:26:40.902Z,99547.09
2023-01-19T02:29:10.979Z,99551.47
2023-01-19T02:31:40.790Z,99557.59
2023-01-19T02:34:11.297Z,99553.31
2023-01-19T02:36:46.675Z,99554.25
2023-01-19T02:39:20.167Z,99601.13
2023-01-19T02:41:52.623Z,99572.47
2023-01-19T02:44:22.868Z,99592.47
2023-01-19T02:46:51.073Z,99582.09
2023-01-19T02:49:19.078Z,99576.03
2023-01-19T02:51:46.891Z,99562.19
2023-01-19T02:54:28.376Z,99627.25
2023-01-19T02:57:17.496Z,99642.88
2023-01-19T02:59:54.833Z,99653.25
2023-01-19T03:02:37.381Z,99628.09
2023-01-19T03:05:31.109Z,99695.78
2023-01-19T03:08:07.774Z,99691.41
2023-01-19T03:10:46.821Z,99680.97
2023-01-19T03:13:19.931Z,99651.34
2023-01-19T03:15:52.080Z,99616.66
2023-01-19T03:18:24.412Z,99618.41
2023-01-19T03:20:56.510Z,99659.22
2023-01-19T03:23:29.100Z,99634.94
2023-01-19T03:26:00.876Z,99642.72
2023-01-19T03:28:31.421Z,99680.06
2023-01-19T03:31:03.183Z,99672.22
2023-01-19T03:33:35.079Z,99672.19
2023-01-19T03:36:09.553Z,99676.50
2023-01-19T03:38:39.613Z,99633.91
2023-01-19T03:41:12.634Z,99640.84
2023-01-19T03:43:41.840Z,99620.91
2023-01-19T03:46:10.933Z,99608.72
2023-01-19T03:48:39.850Z,99596.63
2023-01-19T03:51:10.261Z,99612.28
2023-01-19T03:53:38.290Z,99620.94
2023-01-19T03:56:07.622Z,99636.59
2023-01-19T03:58:37.444Z,99626.19
2023-01-19T04:01:05.510Z,99677.34
2023-01-19T04:03:33.614Z,99673.81
2023-01-19T04:06:01.457Z,99681.63
2023-01-19T04:08:29.362Z,99644.19
2023-01-19T04:10:59.068Z,99630.28
2023-01-19T04:13:29.927Z,99585.16
2023-01-19T04:16:02.200Z,99607.75
2023-01-19T04:18:34.871Z,99599.06
2023-01-19T04:21:03.790Z,99582.63
2023-01-19T04:23:31.891Z,99588.69
2023-01-19T04:25:59.877Z,99619.09
2023-01-19T04:28:28.314Z,99619.03
2023-01-19T04:30:56.262Z,99605.09
2023-01-19T04:33:25.810Z,99614.63
2023-01-19T04:35:54.593Z,99609.41
2023-01-19T04:38:23.093Z,99607.66
2023-01-19T04:40:52.799Z,99601.63
2023-01-19T04:43:20.895Z,99618.09
2023-01-19T04:45:49.427Z,99579.88
2023-01-19T04:48:19.807Z,99586.88
2023-01-19T04:50:49.031Z,99581.69
2023-01-19T04:53:18.466Z,99586.06
2023-01-19T04:55:46.652Z,99595.66
2023-01-19T04:58:15.827Z,99581.81
2023-01-19T05:00:44.429Z,99615.69
2023-01-19T05:03:12.496Z,99646.06
2023-01-19T05:05:40.402Z,99646.91
2023-01-19T05:08:09.576Z,99653.91
2023-01-19T05:10:37.450Z,99635.69
2023-01-19T05:13:05.584Z,99631.38
2023-01-19T05:15:33.488Z,99647.03
2023-01-19T05:18:01.329Z,99654.84
2023-01-19T05:20:29.449Z,99659.19
2023-01-19T05:22:57.198Z,99674.00
2023-01-19T05:25:26.435Z,99683.56
2023-01-19T05:27:54.432Z,99694.84
2023-01-19T05:30:22.196Z,99671.38
2023-01-19T05:32:49.999Z,99680.13
2023-01-19T05:35:20.223Z,99687.91
2023-01-19T05:37:50.780Z,99685.34
2023-01-19T05:40:18.935Z,99699.25
2023-01-19T05:42:48.057Z,99688.81
2023-01-19T05:45:16.043Z,99687.06
2023-01-19T05:47:44.043Z,99690.56
2023-01-19T05:50:12.397Z,99680.13
2023-01-19T05:52:40.145Z,99715.72
2023-01-19T05:55:09.053Z,99705.28
2023-01-19T05:57:36.866Z,99722.69
2023-01-19T06:00:07.345Z,99723.53
2023-01-19T06:02:35.138Z,99703.56
2023-01-19T06:05:04.567Z,99709.66
2023-01-19T06:07:32.841Z,99750.47
2023-01-19T06:10:00.770Z,99712.25
2023-01-19T06:12:28.660Z,99739.16
2023-01-19T06:14:56.484Z,99714.81
2023-01-19T06:17:25.932Z,99718.31
2023-01-19T06:19:53.788Z,99726.13
2023-01-19T06:22:21.851Z,99713.09
2023-01-19T06:24:49.766Z,99746.09
2023-01-19T06:27:17.676Z,99751.31
2023-01-19T06:29:45.463Z,99734.81
2023-01-19T06:32:13.214Z,99725.25
2023-01-19T06:34:43.764Z,99724.41
2023-01-19T06:37:16.225Z,99707.91
2023-01-19T06:39:45.361Z,99724.41
2023-01-19T06:42:13.242Z,99736.63
2023-01-19T06:44:47.226Z,99724.47
2023-01-19T06:47:16.526Z,99729.72
2023-01-19T06:49:45.895Z,99725.41
2023-01-19T06:52:16.723Z,99728.91
2023-01-19T06:54:45.489Z,99755.81
2023-01-19T06:57:14.258Z,99735.00
2023-01-19T06:59:42.798Z,99763.66
2023-01-19T07:02:27.320Z,99762.81
2023-01-19T07:04:57.459Z,99756.72
2023-01-19T07:07:26.641Z,99769.75
2023-01-19T07:09:54.871Z,99814.09
2023-01-19T07:12:22.844Z,99800.16
2023-01-19T07:14:51.506Z,99793.19
2023-01-19T07:17:20.003Z,99793.19
2023-01-19T07:19:51.743Z,99796.66
2023-01-19T07:22:20.986Z,99801.88
2023-01-19T07:24:48.757Z,99808.84
2023-01-19T07:27:16.760Z,99804.50
2023-01-19T07:29:44.632Z,99836.59
2023-01-19T07:32:12.591Z,99860.94
2023-01-19T07:34:40.538Z,99866.97
2023-01-19T07:37:08.306Z,99843.41
2023-01-19T07:39:37.616Z,99799.91
2023-01-19T07:42:05.666Z,99831.16
2023-01-19T07:44:33.563Z,99818.09
2023-01-19T07:47:01.504Z,99825.88
2023-01-19T07:49:29.545Z,99844.97
2023-01-19T07:51:57.350Z,99800.56
2023-01-19T07:54:25.573Z,99813.53
2023-01-19T07:56:56.117Z,99827.44
2023-01-19T07:59:23.924Z,99785.59
2023-01-19T08:01:53.425Z,99803.81
2023-01-19T08:04:21.449Z,99811.59
2023-01-19T08:06:49.456Z,99798.44
2023-01-19T08:09:17.959Z,99797.50
2023-01-19T08:11:45.838Z,99779.16
2023-01-19T08:14:14.995Z,99783.44
2023-01-19T08:16:42.995Z,99775.56
2023-01-19T08:19:10.940Z,99771.97
2023-01-19T08:21:38.971Z,99745.00
2023-01-19T08:24:07.453Z,99750.19
2023-01-19T08:26:36.563Z,99749.25
2023-01-19T08:29:06.727Z,99751.81
2023-01-19T08:31:36.397Z,99777.81
2023-01-19T08:34:04.507Z,99737.72
2023-01-19T08:36:32.552Z,99741.97
2023-01-19T08:39:00.373Z,99747.19
2023-01-19T08:41:28.385Z,99733.16
2023-01-19T08:43:56.241Z,99696.56
2023-01-19T08:46:24.199Z,99711.28
2023-01-19T08:48:53.569Z,99706.88
2023-01-19T08:51:22.356Z,99746.84
2023-01-19T08:53:50.400Z,99721.53
2023-01-19T08:56:20.516Z,99704.94
2023-01-19T08:59:03.207Z,99669.22
2023-01-19T09:01:37.161Z,99715.28
2023-01-19T09:04:07.334Z,99655.16
2023-01-19T09:06:35.295Z,99724.78
2023-01-19T09:09:03.318Z,99676.84
2023-01-19T09:11:31.834Z,99695.03
2023-01-19T09:13:59.898Z,99684.53
2023-01-19T09:16:29.439Z,99707.88
2023-01-19T09:18:58.754Z,99691.28
2023-01-19T09:21:28.800Z,99631.16
2023-01-19T09:23:57.767Z,99651.16
2023-01-19T09:26:25.859Z,99650.19
2023-01-19T09:28:53.798Z,99671.00
2023-01-19T09:31:21.789Z,99652.66
2023-01-19T09:33:49.785Z,99649.94
2023-01-19T09:36:17.593Z,99647.16
2023-01-19T09:38:46.981Z,99609.69
2023-01-19T09:41:22.036Z,99624.38
2023-01-19T09:43:55.966Z,99595.59
2023-01-19T09:46:30.849Z,99644.41
2023-01-19T09:49:04.690Z,99637.28
2023-01-19T09:51:36.668Z,99652.81
2023-01-19T09:54:11.870Z,99649.19
2023-01-19T09:56:40.276Z,99640.47
2023-01-19T09:59:20.654Z,99659.47
2023-01-19T10:01:58.370Z,99646.25
2023-01-19T10:04:33.480Z,99648.59
2023-01-19T10:07:10.969Z,99609.31
2023-01-19T10:09:51.717Z,99640.53
2023-01-19T10:12:30.310Z,99643.78
2023-01-19T10:15:07.071Z,99670.63
2023-01-19T10:17:45.245Z,99588.59
2023-01-19T10:20:19.307Z,99636.25
2023-01-19T10:22:49.736Z,99584.66
2023-01-19T10:25:23.885Z,99531.38
2023-01-19T10:27:52.309Z,99557.56
2023-01-19T10:30:26.594Z,99557.34
2023-01-19T10:32:54.758Z,99573.78
2023-01-19T10:35:26.384Z,99553.63
2023-01-19T10:37:57.710Z,99575.09
2023-01-19T10:40:34.587Z,99568.72
2023-01-19T10:43:02.806Z,99541.59
2023-01-19T10:45:32.518Z,99508.19
2023-01-19T10:48:07.864Z,99482.00
2023-01-19T10:50:39.852Z,99491.47
2023-01-19T10:53:21.708Z,99486.06
2023-01-19T10:56:12.105Z,99486.78
2023-01-19T10:58:40.534Z,99485.81
2023-01-19T11:01:18.491Z,99439.47
2023-01-19T11:03:46.837Z,99431.50
2023-01-19T11:06:23.043Z,99425.16
2023-01-19T11:08:52.341Z,99412.84
2023-01-19T11:11:22.823Z,99405.66
2023-01-19T11:14:08.531Z,99447.34
2023-01-19T11:16:38.126Z,99434.06
2023-01-19T11:19:07.525Z,99360.56
2023-01-19T11:21:35.568Z,99396.25
2023-01-19T11:24:06.355Z,99345.53
2023-01-19T11:26:42.227Z,99359.25
2023-01-19T11:29:18.996Z,99335.47
2023-01-19T11:31:47.094Z,99342.22
2023-01-19T11:34:28.175Z,99362.94
2023-01-19T11:36:58.367Z,99340.94
2023-01-19T11:39:28.366Z,99324.88
2023-01-19T11:42:01.795Z,99294.22
2023-01-19T11:44:34.082Z,99269.56
2023-01-19T11:47:06.186Z,99234.56
2023-01-19T11:49:41.766Z,99276.53
2023-01-19T11:52:23.442Z,99279.97
2023-01-19T11:55:00.787Z,99316.47
2023-01-19T11:57:29.992Z,99319.88
2023-01-19T12:00:03.421Z,99248.03
2023-01-19T12:02:43.964Z,99219.13
2023-01-19T12:05:16.791Z,99285.38
2023-01-19T12:07:46.490Z,99239.91
2023-01-19T12:10:26.583Z,99225.91
2023-01-19T12:12:57.997Z,99191.81
2023-01-19T12:15:31.037Z,99238.94
2023-01-19T12:18:03.134Z,99226.63
2023-01-19T12:20:36.150Z,99215.03
2023-01-19T12:23:17.208Z,99171.34
2023-01-19T12:26:00.817Z,99167.78
2023-01-19T12:28:32.909Z,99156.97
2023-01-19T12:31:03.060Z,99157.81
2023-01-19T12:33:35.969Z,99219.69
2023-01-19T12:36:06.661Z,99159.25
2023-01-19T12:38:45.443Z,99115.41
2023-01-19T12:41:27.140Z,99107.81
2023-01-19T12:44:25.436Z,99188.19
2023-01-19T12:46:57.368Z,99191.44
2023-01-19T12:49:29.332Z,99114.41
2023-01-19T12:52:14.059Z,99093.63
2023-01-19T12:54:45.056Z,99110.09
2023-01-19T12:57:21.978Z,99085.78
2023-01-19T12:59:57.599Z,99128.66
2023-01-19T13:02:54.118Z,99116.53
2023-01-19T13:05:58.798Z,99217.41
2023-01-19T13:08:51.073Z,99225.88
2023-01-19T13:11:21.058Z,99141.63
2023-01-19T13:14:22.490Z,99111.97
2023-01-19T13:17:15.264Z,99073.91
2023-01-19T13:19:52.452Z,99088.09
2023-01-19T13:23:02.810Z,99064.69
2023-01-19T13:25:36.561Z,99127.84
2023-01-19T13:28:10.904Z,99166.09
2023-01-19T13:30:51.379Z,99199.16
2023-01-19T13:33:23.470Z,99207.78
2023-01-19T13:35:58.527Z,99251.16
2023-01-19T13:38:28.452Z,99184.66
2023-01-19T13:40:57.741Z,99227.59
2023-01-19T13:43:33.425Z,99238.75
2023-01-19T13:46:02.969Z,99229.91
2023-01-19T13:48:33.613Z,99254.31
2023-01-19T13:51:04.650Z,99212.09
2023-01-19T13:53:33.161Z,99193.00
2023-01-19T13:56:26.016Z,99227.09
2023-01-19T13:59:09.973Z,99197.22
2023-01-19T14:01:40.098Z,99224.22
2023-01-19T14:04:26.412Z,99206.63
2023-01-19T14:06:57.616Z,99148.03
2023-01-19T14:09:25.392Z,99185.56
2023-01-19T14:12:12.353Z,99156.00
2023-01-19T14:14:40.523Z,99186.69
2023-01-19T14:17:26.629Z,99135.28
2023-01-19T14:19:57.549Z,99168.69
2023-01-19T14:22:44.130Z,99205.44
2023-01-19T14:25:32.205Z,99203.72
2023-01-19T14:28:35.476Z,99182.81
2023-01-19T14:31:18.585Z,99209.97
2023-01-19T14:33:47.755Z,99202.97
2023-01-19T14:36:28.592Z,99215.09
2023-01-19T14:38:59.361Z,99175.88
2023-01-19T14:41:31.619Z,99197.78
2023-01-19T14:44:00.999Z,99216.22
2023-01-19T14:46:29.444Z,99176.09
2023-01-19T14:49:03.103Z,99224.16
2023-01-19T14:51:33.106Z,99244.25
2023-01-19T14:54:03.231Z,99231.16
2023-01-19T14:56:32.613Z,99211.03
2023-01-19T14:59:09.941Z,99222.44
2023-01-19T15:01:40.135Z,99233.66
2023-01-19T15:04:08.212Z,99180.44
2023-01-19T15:06:56.467Z,99157.91
2023-01-19T15:09:24.517Z,99213.13
2023-01-19T15:11:53.211Z,99182.63
2023-01-19T15:14:22.394Z,99186.28
2023-01-19T15:16:50.433Z,99170.69
2023-01-19T15:19:18.871Z,99192.72
2023-01-19T15:21:46.968Z,99189.22
2023-01-19T15:24:17.925Z,99207.69
2023-01-19T15:26:46.450Z,99210.63
2023-01-19T15:29:21.621Z,99244.66
2023-01-19T15:31:49.707Z,99241.84
2023-01-19T15:34:17.640Z,99217.53
2023-01-19T15:36:45.616Z,99227.22
2023-01-19T15:39:13.570Z,99258.72
2023-01-19T15:41:42.929Z,99246.53
2023-01-19T15:44:11.960Z,99230.88
2023-01-19T15:46:40.117Z,99236.09
2023-01-19T15:49:08.128Z,99251.94
2023-01-19T15:51:36.043Z,99260.59
2023-01-19T15:54:04.025Z,99296.31
2023-01-19T15:56:32.980Z,99262.97
2023-01-19T15:59:03.280Z,99254.25
2023-01-19T16:01:33.066Z,99251.59
2023-01-19T16:04:02.461Z,99234.13
2023-01-19T16:06:30.761Z,99271.66
2023-01-19T16:09:01.329Z,99290.72
2023-01-19T16:11:32.028Z,99259.09
2023-01-19T16:14:00.194Z,99245.06
2023-01-19T16:16:30.120Z,99218.13
2023-01-19T16:18:58.377Z,99220.84
2023-01-19T16:21:26.417Z,99221.88
2023-01-19T16:23:55.271Z,99229.84
2023-01-19T16:26:29.552Z,99243.72
2023-01-19T16:28:58.796Z,99238.47
2023-01-19T16:31:27.019Z,99246.44
2023-01-19T16:33:56.414Z,99232.56
2023-01-19T16:36:27.111Z,99284.13
2023-01-19T16:38:55.411Z,99257.81
2023-01-19T16:41:23.411Z,99250.06
2023-01-19T16:43:53.134Z,99250.94
2023-01-19T16:46:24.252Z,99258.00
2023-01-19T16:48:52.504Z,99260.66
2023-01-19T16:51:21.807Z,99297.28
2023-01-19T16:53:51.829Z,99327.78
2023-01-19T16:56:19.866Z,99324.13
2023-01-19T16:58:47.788Z,99320.69
2023-01-19T17:01:19.916Z,99291.81
2023-01-19T17:03:48.415Z,99289.09
2023-01-19T17:06:18.622Z,99268.31
2023-01-19T17:08:48.364Z,99292.84
2023-01-19T17:11:20.791Z,99323.41
2023-01-19T17:13:48.988Z,99324.22
2023-01-19T17:16:16.876Z,99318.00
2023-01-19T17:18:45.080Z,99305.88
2023-01-19T17:21:17.440Z,99332.09
2023-01-19T17:23:48.473Z,99323.41
2023-01-19T17:26:17.593Z,99365.28
2023-01-19T17:28:45.693Z,99301.41
2023-01-19T17:31:15.226Z,99299.94
2023-01-19T17:33:45.166Z,99350.44
2023-01-19T17:36:15.185Z,99360.13
2023-01-19T17:38:43.403Z,99363.69
2023-01-19T17:41:17.083Z,99362.06
2023-01-19T17:43:45.809Z,99401.44
2023-01-19T17:46:14.464Z,99393.50
2023-01-19T17:48:42.481Z,99429.38
2023-01-19T17:51:14.421Z,99417.22
2023-01-19T17:53:43.116Z,99466.88
2023-01-19T17:56:13.059Z,99440.66
2023-01-19T17:58:42.773Z,99398.78
2023-01-19T18:01:14.481Z,99447.69
2023-01-19T18:03:43.368Z,99422.38
2023-01-19T18:06:11.693Z,99381.50
2023-01-19T18:08:41.005Z,99366.03
2023-01-19T18:11:09.971Z,99387.34
2023-01-19T18:13:38.396Z,99427.69
2023-01-19T18:16:10.002Z,99464.41
2023-01-19T18:18:38.848Z,99502.75
2023-01-19T18:21:09.024Z,99469.56
2023-01-19T18:23:37.808Z,99469.78
2023-01-19T18:29:47.422Z,99499.81
2023-01-19T18:32:17.466Z,99535.59
2023-01-19T18:34:46.032Z,99557.44
2023-01-19T18:37:14.676Z,99571.38
2023-01-19T18:39:43.203Z,99547.78
2023-01-19T18:42:11.944Z,99571.47
2023-01-19T18:44:40.426Z,99573.25
2023-01-19T18:47:08.844Z,99590.84
2023-01-19T18:49:39.040Z,99550.75
2023-01-19T18:52:07.547Z,99612.69
2023-01-19T18:54:36.108Z,99598.59
2023-01-19T18:57:04.432Z,99600.31
2023-01-19T18:59:32.825Z,99617.84
2023-01-19T19:02:01.659Z,99641.34
2023-01-19T19:04:29.580Z,99617.69
2023-01-19T19:07:03.619Z,99643.84
2023-01-19T19:09:31.683Z,99627.16
2023-01-19T19:12:00.001Z,99628.84
2023-01-19T19:14:28.204Z,99617.50
2023-01-19T19:16:56.384Z,99618.47
2023-01-19T19:19:24.601Z,99609.75
2023-01-19T19:21:53.983Z,99620.66
2023-01-19T19:24:58.241Z,99626.91
2023-01-19T19:28:04.724Z,99661.94
2023-01-19T19:30:47.346Z,99666.28
2023-01-19T19:33:19.318Z,99686.47
2023-01-19T19:35:48.335Z,99709.41
2023-01-19T19:38:16.499Z,99729.50
2023-01-19T19:40:46.435Z,99691.13
2023-01-19T19:43:17.824Z,99731.59
2023-01-19T19:45:45.905Z,99713.41
2023-01-19T19:48:30.649Z,99748.53
2023-01-19T19:51:18.371Z,99751.09
2023-01-19T19:53:54.116Z,99766.06
2023-01-19T19:56:46.192Z,99768.63
2023-01-19T19:59:14.491Z,99755.72
2023-01-19T20:01:45.551Z,99764.50
2023-01-19T20:04:14.337Z,99787.34
2023-01-19T20:06:44.985Z,99801.28
2023-01-19T20:09:14.132Z,99813.72
2023-01-19T20:11:45.169Z,99820.69
2023-01-19T20:14:16.064Z,99833.78
2023-01-19T20:16:44.135Z,99829.59
2023-01-19T20:19:12.058Z,99858.41
2023-01-19T20:21:42.756Z,99870.66
2023-01-19T20:24:15.511Z,99900.41
2023-01-19T20:26:47.863Z,99903.00
2023-01-19T20:29:16.582Z,99914.47
2023-01-19T20:31:46.267Z,99953.72
2023-01-19T20:34:16.953Z,99944.16
2023-01-19T20:36:49.866Z,99968.63
2023-01-19T20:39:18.192Z,99966.88
2023-01-19T20:41:50.100Z,99982.53
2023-01-19T20:44:20.985Z,99977.38
2023-01-19T20:46:51.650Z,100006.84
2023-01-19T20:49:20.735Z,100018.25
2023-01-19T20:51:52.402Z,100010.41
2023-01-19T20:54:22.833Z,100040.06
2023-01-19T20:56:52.775Z,100030.47
2023-01-19T20:59:22.761Z,100058.56
2023-01-19T21:01:51.191Z,100083.94
2023-01-19T21:04:22.394Z,100095.34
2023-01-19T21:06:52.964Z,100117.28
2023-01-19T21:09:24.159Z,100119.81
2023-01-19T21:11:56.559Z,100160.03
2023-01-19T21:14:25.252Z,100132.16
2023-01-19T21:16:53.131Z,100161.00
2023-01-19T21:19:24.210Z,100151.44
2023-01-19T21:21:55.295Z,100184.69
2023-01-19T21:24:23.211Z,100183.81
2023-01-19T21:26:51.142Z,100183.06
2023-01-19T21:29:20.884Z,100193.53
2023-01-19T21:31:55.167Z,100196.25
2023-01-19T21:34:23.734Z,100232.91
2023-01-19T21:36:51.616Z,100237.28
2023-01-19T21:39:19.394Z,100248.59
2023-01-19T21:41:47.275Z,100254.69
2023-01-19T21:44:16.072Z,100257.28
2023-01-19T21:46:45.476Z,100283.50
2023-01-19T21:49:19.931Z,100265.06
2023-01-19T21:51:56.336Z,100278.28
2023-01-19T21:54:27.043Z,100284.38
2023-01-19T21:57:04.164Z,100290.38
2023-01-19T21:59:32.582Z,100272.78
2023-01-19T22:02:02.070Z,100243.13
2023-01-19T22:04:34.459Z,100257.19
2023-01-19T22:07:03.193Z,100293.94
2023-01-19T22:09:31.624Z,100277.25
2023-01-19T22:12:02.676Z,100291.31
2023-01-19T22:14:31.367Z,100305.31
2023-01-19T22:16:59.293Z,100267.66
2023-01-19T22:19:29.014Z,100297.50
2023-01-19T22:21:57.796Z,100322.75
2023-01-19T22:24:25.927Z,100298.28
2023-01-19T22:26:54.085Z,100299.03
2023-01-19T22:29:23.167Z,100273.63
2023-01-19T22:31:58.960Z,100262.28
2023-01-19T22:34:38.465Z,100254.50
2023-01-19T22:37:06.493Z,100289.53
2023-01-19T22:39:35.309Z,100301.75
2023-01-19T22:42:03.283Z,100298.28
2023-01-19T22:44:31.228Z,100276.50
2023-01-19T22:46:59.560Z,100266.06
2023-01-19T22:49:30.171Z,100299.38
2023-01-19T22:52:10.562Z,100312.53
2023-01-19T22:55:02.444Z,100320.47
2023-01-19T22:57:39.846Z,100344.06
2023-01-19T23:00:27.549Z,100361.47
2023-01-19T23:02:57.341Z,100345.84
2023-01-19T23:05:48.745Z,100347.63
2023-01-19T23:08:17.258Z,100356.38
2023-01-19T23:10:45.181Z,100351.19
2023-01-19T23:13:13.090Z,100371.34
2023-01-19T23:15:41.369Z,100378.34
2023-01-19T23:18:09.518Z,100403.66
2023-01-19T23:20:37.571Z,100386.09
2023-01-19T23:23:07.314Z,100392.19
2023-01-19T23:25:35.524Z,100392.09
2023-01-19T23:28:03.910Z,100355.34
2023-01-19T23:30:32.252Z,100380.63
2023-01-19T23:33:28.418Z,100334.34
2023-01-19T23:35:57.064Z,100347.50
2023-01-19T23:38:33.168Z,100366.00
2023-01-19T23:41:04.153Z,100387.00
2023-01-19T23:44:04.294Z,100373.88
2023-01-19T23:46:58.933Z,100409.69
2023-01-19T23:49:27.409Z,100413.16
2023-01-19T23:52:27.969Z,100387.78
2023-01-19T23:54:57.584Z,100375.47
2023-01-19T23:57:25.922Z,100368.50
2023-01-19T23:59:57.774Z,100371.13
